Time;durP1;ratioP1;P1;durP2;ratioP2;P2;SDS_P1;SDS_P2;PMS_P1;PMS_P2;Temp;Humidity;BMP_temperature;BMP_pressure;BME280_temperature;BME280_humidity;BME280_pressure;Samples;Min_cycle;Max_cycle;Signal;HPM_P1;HPM_P2
2023/08/12 00:02:10;;;;;;;4.57;3.15;;;;;;;;;;5015683;28;20674;-36
2023/08/12 00:04:37;;;;;;;5.72;3.03;;;;;;;;;;5015563;28;20236;-36
2023/08/12 00:07:04;;;;;;;5.30;2.78;;;;;;;;;;5015690;28;20196;-36
2023/08/12 00:09:31;;;;;;;5.82;3.45;;;;;;;;;;5015415;28;20201;-37
2023/08/12 00:11:59;;;;;;;4.40;3.15;;;;;;;;;;5015588;28;20247;-36
2023/08/12 00:14:26;;;;;;;5.72;3.05;;;;;;;;;;5015638;28;20308;-36
2023/08/12 00:16:53;;;;;;;3.97;2.88;;;;;;;;;;5015313;28;20267;-36
2023/08/12 00:19:20;;;;;;;10.52;2.63;;;;;;;;;;5015490;28;20206;-36
2023/08/12 00:21:47;;;;;;;4.25;2.63;;;;;;;;;;5015573;28;20193;-36
2023/08/12 00:24:14;;;;;;;4.43;2.83;;;;;;;;;;5015191;28;20243;-36
2023/08/12 00:26:41;;;;;;;5.03;2.97;;;;;;;;;;5015736;28;20221;-37
2023/08/12 00:29:08;;;;;;;5.45;3.40;;;;;;;;;;5015644;28;20212;-37
2023/08/12 00:31:36;;;;;;;8.15;4.10;;;;;;;;;;5013933;28;20666;-37
2023/08/12 00:34:03;;;;;;;4.57;3.08;;;;;;;;;;5015291;28;20324;-36
2023/08/12 00:36:30;;;;;;;5.47;3.17;;;;;;;;;;5015224;28;20240;-37
2023/08/12 00:38:57;;;;;;;4.95;2.67;;;;;;;;;;5015201;28;20209;-36
2023/08/12 00:41:24;;;;;;;4.43;2.38;;;;;;;;;;5013719;28;20217;-36
2023/08/12 00:43:51;;;;;;;4.07;2.92;;;;;;;;;;5014797;28;20202;-37
2023/08/12 00:46:20;;;;;;;9.10;2.60;;;;;;;;;;5014994;28;20240;-37
2023/08/12 00:48:48;;;;;;;3.60;2.65;;;;;;;;;;4997666;28;20206;-36
2023/08/12 00:51:18;;;;;;;4.53;3.28;;;;;;;;;;5046421;28;20553;-36
2023/08/12 00:53:46;;;;;;;4.00;2.30;;;;;;;;;;5014609;28;20290;-37
2023/08/12 00:56:14;;;;;;;5.35;2.95;;;;;;;;;;5031652;28;20216;-36
2023/08/12 00:58:41;;;;;;;4.38;2.97;;;;;;;;;;5013918;28;20813;-36
2023/08/12 01:01:10;;;;;;;5.15;3.00;;;;;;;;;;5006578;28;20197;-36
2023/08/12 01:03:37;;;;;;;4.43;2.47;;;;;;;;;;5030435;28;20205;-36
2023/08/12 01:06:06;;;;;;;3.00;2.15;;;;;;;;;;5032550;28;20221;-37
2023/08/12 01:08:34;;;;;;;5.38;2.42;;;;;;;;;;5032391;28;20542;-37
2023/08/12 01:11:21;;;;;;;8.40;2.38;;;;;;;;;;5031181;28;20345;-37
2023/08/12 01:14:00;;;;;;;3.67;2.47;;;;;;;;;;5047194;28;20662;-36
2023/08/12 01:16:33;;;;;;;4.32;2.45;;;;;;;;;;5032783;28;20215;-36
2023/08/12 01:19:01;;;;;;;6.95;2.75;;;;;;;;;;5032913;28;20212;-36
2023/08/12 01:21:29;;;;;;;9.13;3.50;;;;;;;;;;5034205;28;20307;-36
2023/08/12 01:23:57;;;;;;;4.45;2.38;;;;;;;;;;5034041;28;20211;-36
2023/08/12 01:26:24;;;;;;;4.20;2.75;;;;;;;;;;5016524;28;20221;-36
2023/08/12 01:28:52;;;;;;;3.75;2.83;;;;;;;;;;5065759;28;20288;-36
2023/08/12 01:31:44;;;;;;;4.50;3.00;;;;;;;;;;5032717;28;20246;-36
2023/08/12 01:34:27;;;;;;;5.18;2.55;;;;;;;;;;5034284;28;20252;-36
2023/08/12 01:36:56;;;;;;;3.75;2.35;;;;;;;;;;5016463;28;20235;-36
2023/08/12 01:39:24;;;;;;;5.15;2.33;;;;;;;;;;5032560;28;20279;-36
2023/08/12 01:41:52;;;;;;;6.53;2.85;;;;;;;;;;5032458;28;20668;-36
2023/08/12 01:44:19;;;;;;;5.28;3.28;;;;;;;;;;5033909;28;20263;-36
2023/08/12 01:46:46;;;;;;;4.93;3.05;;;;;;;;;;5016371;28;20283;-36
2023/08/12 01:49:13;;;;;;;4.85;3.00;;;;;;;;;;5032424;28;20254;-36
2023/08/12 01:51:43;;;;;;;5.43;2.58;;;;;;;;;;5033570;28;20204;-36
2023/08/12 01:54:10;;;;;;;3.70;2.15;;;;;;;;;;5033713;28;20295;-37
2023/08/12 01:56:37;;;;;;;5.13;2.47;;;;;;;;;;5033386;28;20204;-36
2023/08/12 01:59:05;;;;;;;4.80;2.38;;;;;;;;;;5065508;28;20215;-36
2023/08/12 02:01:33;;;;;;;3.83;2.70;;;;;;;;;;5032357;28;20207;-36
2023/08/12 02:04:00;;;;;;;4.03;2.50;;;;;;;;;;5033661;28;20201;-36
2023/08/12 02:06:27;;;;;;;7.47;2.55;;;;;;;;;;5032315;28;20225;-36
2023/08/12 02:08:54;;;;;;;12.57;2.42;;;;;;;;;;5032152;28;20200;-36
2023/08/12 02:11:21;;;;;;;3.53;2.33;;;;;;;;;;5033282;28;20204;-36
2023/08/12 02:13:48;;;;;;;9.15;2.88;;;;;;;;;;5033529;28;20228;-36
2023/08/12 02:16:15;;;;;;;11.30;3.47;;;;;;;;;;5032356;28;20259;-36
2023/08/12 02:18:43;;;;;;;8.07;3.25;;;;;;;;;;5033290;28;20212;-36
2023/08/12 02:21:10;;;;;;;8.55;3.90;;;;;;;;;;5031977;28;20207;-36
2023/08/12 02:23:37;;;;;;;5.32;3.60;;;;;;;;;;5033124;28;20204;-36
2023/08/12 02:26:04;;;;;;;6.68;3.42;;;;;;;;;;5035763;28;20232;-36
2023/08/12 02:28:31;;;;;;;5.55;3.20;;;;;;;;;;5052619;28;20204;-36
2023/08/12 02:30:59;;;;;;;4.80;2.92;;;;;;;;;;5037409;28;20205;-36
2023/08/12 02:33:28;;;;;;;3.95;2.55;;;;;;;;;;5031335;28;20234;-36
2023/08/12 02:35:55;;;;;;;4.95;2.53;;;;;;;;;;5017496;28;20200;-36
2023/08/12 02:38:24;;;;;;;5.85;2.85;;;;;;;;;;5021174;28;20537;-36
2023/08/12 02:40:51;;;;;;;5.38;3.20;;;;;;;;;;5036857;28;20212;-37
2023/08/12 02:43:18;;;;;;;4.20;2.47;;;;;;;;;;5036869;28;20211;-36
2023/08/12 02:45:46;;;;;;;5.25;2.65;;;;;;;;;;5035417;28;20705;-37
2023/08/12 02:48:13;;;;;;;3.40;2.22;;;;;;;;;;5036634;28;20211;-36
2023/08/12 02:50:40;;;;;;;4.68;2.47;;;;;;;;;;5036457;28;20254;-36
2023/08/12 02:53:08;;;;;;;5.47;2.95;;;;;;;;;;5068389;28;20610;-36
2023/08/12 02:55:36;;;;;;;4.20;2.90;;;;;;;;;;5036332;28;20677;-36
2023/08/12 02:58:04;;;;;;;4.65;2.70;;;;;;;;;;5068529;28;20215;-36
2023/08/12 03:00:31;;;;;;;4.95;2.75;;;;;;;;;;5036354;28;20680;-36
2023/08/12 03:02:58;;;;;;;6.78;2.72;;;;;;;;;;5036274;28;20283;-36
2023/08/12 03:05:26;;;;;;;9.00;3.00;;;;;;;;;;5034885;28;20287;-36
2023/08/12 03:07:53;;;;;;;7.10;2.95;;;;;;;;;;5034982;28;20201;-36
2023/08/12 03:10:20;;;;;;;3.47;2.45;;;;;;;;;;5036139;28;20201;-36
2023/08/12 03:12:47;;;;;;;5.80;3.10;;;;;;;;;;5035157;28;20272;-36
2023/08/12 03:15:16;;;;;;;5.30;2.70;;;;;;;;;;5068275;28;20228;-37
2023/08/12 03:17:43;;;;;;;5.28;3.08;;;;;;;;;;5035031;28;20262;-37
2023/08/12 03:20:11;;;;;;;4.35;3.00;;;;;;;;;;5068306;28;20208;-36
2023/08/12 03:22:39;;;;;;;3.42;2.50;;;;;;;;;;5034954;28;20200;-36
2023/08/12 03:25:08;;;;;;;3.08;2.45;;;;;;;;;;5067853;28;20683;-36
2023/08/12 03:27:36;;;;;;;7.60;2.65;;;;;;;;;;5034589;28;20224;-36
2023/08/12 03:30:04;;;;;;;5.63;3.20;;;;;;;;;;5034575;28;20205;-36
2023/08/12 03:32:32;;;;;;;6.63;3.42;;;;;;;;;;5035844;28;20197;-36
2023/08/12 03:35:00;;;;;;;5.28;3.78;;;;;;;;;;5034935;28;20189;-36
2023/08/12 03:37:28;;;;;;;6.00;3.50;;;;;;;;;;5067484;28;20208;-36
2023/08/12 03:39:55;;;;;;;7.45;3.88;;;;;;;;;;5067945;28;20258;-36
2023/08/12 03:42:22;;;;;;;5.80;3.63;;;;;;;;;;5068222;28;20207;-36
2023/08/12 03:44:50;;;;;;;5.05;3.40;;;;;;;;;;5034549;28;20216;-36
2023/08/12 03:47:21;;;;;;;6.13;2.95;;;;;;;;;;5036157;28;20228;-36
2023/08/12 03:49:49;;;;;;;6.03;4.43;;;;;;;;;;5067745;28;20204;-36
2023/08/12 03:52:16;;;;;;;8.57;4.00;;;;;;;;;;5034829;28;20204;-36
2023/08/12 03:54:43;;;;;;;9.10;3.97;;;;;;;;;;5067651;28;20212;-36
2023/08/12 03:57:11;;;;;;;6.10;3.45;;;;;;;;;;5032043;28;20232;-36
2023/08/12 03:59:39;;;;;;;5.70;3.78;;;;;;;;;;5024091;28;20584;-36
2023/08/12 04:02:06;;;;;;;5.63;3.65;;;;;;;;;;5026002;28;20295;-36
2023/08/12 04:04:33;;;;;;;5.30;3.63;;;;;;;;;;5035586;28;20197;-37
2023/08/12 04:07:00;;;;;;;6.70;4.55;;;;;;;;;;5035480;28;20308;-36
2023/08/12 04:09:28;;;;;;;6.22;3.78;;;;;;;;;;5034185;28;20228;-36
2023/08/12 04:11:55;;;;;;;8.50;3.70;;;;;;;;;;5035321;28;20215;-36
2023/08/12 04:14:22;;;;;;;5.90;4.18;;;;;;;;;;5035459;28;20205;-36
2023/08/12 04:16:49;;;;;;;4.85;4.07;;;;;;;;;;5035408;28;20224;-36
2023/08/12 04:19:17;;;;;;;6.05;4.57;;;;;;;;;;5065905;28;20201;-36
2023/08/12 04:21:46;;;;;;;6.65;4.38;;;;;;;;;;5033841;28;20283;-36
2023/08/12 04:24:14;;;;;;;6.97;4.05;;;;;;;;;;5033810;28;20208;-36
2023/08/12 04:26:41;;;;;;;7.70;5.00;;;;;;;;;;5031647;28;20233;-36
2023/08/12 04:29:08;;;;;;;7.85;4.70;;;;;;;;;;5013929;28;20205;-36
2023/08/12 04:31:38;;;;;;;8.32;4.47;;;;;;;;;;5025623;28;20209;-36
2023/08/12 04:34:05;;;;;;;8.77;4.75;;;;;;;;;;5033399;28;20244;-36
2023/08/12 04:36:32;;;;;;;5.35;4.50;;;;;;;;;;5034781;28;20288;-36
2023/08/12 04:39:02;;;;;;;5.40;4.63;;;;;;;;;;5051663;28;20209;-36
2023/08/12 04:41:31;;;;;;;6.85;5.13;;;;;;;;;;5046817;28;20714;-36
2023/08/12 04:43:58;;;;;;;6.75;4.70;;;;;;;;;;5046813;28;20216;-38
2023/08/12 04:46:28;;;;;;;10.88;4.63;;;;;;;;;;5032663;28;20232;-36
2023/08/12 04:48:56;;;;;;;7.45;4.40;;;;;;;;;;5029861;28;20205;-36
2023/08/12 04:51:23;;;;;;;7.50;4.25;;;;;;;;;;5029084;28;20251;-36
2023/08/12 04:53:50;;;;;;;9.30;4.50;;;;;;;;;;5033874;28;20710;-37
2023/08/12 04:56:18;;;;;;;6.25;4.63;;;;;;;;;;5028468;28;20560;-38
2023/08/12 04:58:45;;;;;;;7.43;5.20;;;;;;;;;;5031530;28;20193;-37
2023/08/12 05:01:12;;;;;;;8.27;4.78;;;;;;;;;;5057808;28;20227;-37
2023/08/12 05:03:40;;;;;;;6.00;3.97;;;;;;;;;;5029445;28;20587;-36
2023/08/12 05:06:08;;;;;;;6.65;4.10;;;;;;;;;;5028945;28;20220;-37
2023/08/12 05:08:35;;;;;;;5.45;3.90;;;;;;;;;;5041067;28;20208;-39
2023/08/12 05:11:03;;;;;;;5.15;3.92;;;;;;;;;;5043126;28;20197;-38
2023/08/12 05:13:30;;;;;;;9.70;4.25;;;;;;;;;;5042035;28;20196;-37
2023/08/12 05:15:57;;;;;;;8.35;4.25;;;;;;;;;;5043298;28;20595;-37
2023/08/12 05:18:26;;;;;;;5.78;4.15;;;;;;;;;;5040322;28;20205;-37
2023/08/12 05:20:53;;;;;;;9.57;4.32;;;;;;;;;;5038028;28;20296;-37
2023/08/12 05:23:21;;;;;;;7.95;4.10;;;;;;;;;;5031629;28;20703;-37
2023/08/12 05:25:49;;;;;;;6.15;3.70;;;;;;;;;;5034190;28;20669;-37
2023/08/12 05:28:18;;;;;;;6.82;3.78;;;;;;;;;;5040500;28;20204;-37
2023/08/12 05:30:45;;;;;;;7.65;3.97;;;;;;;;;;5039839;28;20201;-38
2023/08/12 05:33:12;;;;;;;6.43;3.97;;;;;;;;;;5044709;28;20232;-38
2023/08/12 05:35:39;;;;;;;11.45;3.75;;;;;;;;;;5034118;28;20290;-37
2023/08/12 05:38:06;;;;;;;7.90;4.65;;;;;;;;;;5033432;28;20220;-40
2023/08/12 05:40:33;;;;;;;6.68;3.85;;;;;;;;;;5032535;28;20228;-37
2023/08/12 05:43:01;;;;;;;7.15;3.80;;;;;;;;;;5032787;28;20216;-38
2023/08/12 05:45:28;;;;;;;9.95;4.05;;;;;;;;;;5031840;28;20653;-37
2023/08/12 05:47:55;;;;;;;7.68;3.75;;;;;;;;;;5032650;28;20290;-38
2023/08/12 05:50:22;;;;;;;7.03;3.67;;;;;;;;;;5033428;28;20207;-40
2023/08/12 05:52:49;;;;;;;5.10;3.63;;;;;;;;;;5020800;28;20258;-45
2023/08/12 05:55:16;;;;;;;5.93;4.07;;;;;;;;;;5032949;28;20642;-38
2023/08/12 05:57:43;;;;;;;5.85;3.92;;;;;;;;;;5041050;28;20208;-39
2023/08/12 06:00:11;;;;;;;9.27;3.70;;;;;;;;;;5042522;28;20201;-38
2023/08/12 06:02:39;;;;;;;7.25;3.50;;;;;;;;;;5042112;28;20603;-37
2023/08/12 06:05:07;;;;;;;5.63;3.70;;;;;;;;;;5041112;28;20208;-36
2023/08/12 06:07:35;;;;;;;9.93;4.10;;;;;;;;;;5042471;28;20229;-37
2023/08/12 06:10:02;;;;;;;6.55;3.90;;;;;;;;;;5034033;28;20256;-39
2023/08/12 06:12:29;;;;;;;4.75;3.70;;;;;;;;;;5021394;28;20208;-37
2023/08/12 06:14:56;;;;;;;4.43;3.90;;;;;;;;;;5037910;28;20572;-38
2023/08/12 06:17:23;;;;;;;6.47;4.05;;;;;;;;;;5042238;28;20231;-37
2023/08/12 06:19:50;;;;;;;9.75;3.80;;;;;;;;;;5040874;28;20265;-38
2023/08/12 06:22:18;;;;;;;7.55;4.28;;;;;;;;;;5047246;28;20266;-37
2023/08/12 06:24:45;;;;;;;8.00;3.75;;;;;;;;;;5041776;28;20224;-39
2023/08/12 06:27:12;;;;;;;5.75;3.50;;;;;;;;;;5012844;28;20237;-37
2023/08/12 06:29:39;;;;;;;7.43;3.17;;;;;;;;;;5023441;28;20219;-37
2023/08/12 06:32:07;;;;;;;9.85;4.03;;;;;;;;;;5052227;28;20278;-37
2023/08/12 06:34:34;;;;;;;7.80;3.70;;;;;;;;;;5037772;28;20315;-37
2023/08/12 06:37:01;;;;;;;7.35;3.47;;;;;;;;;;5030953;28;20232;-37
2023/08/12 06:39:28;;;;;;;6.07;3.42;;;;;;;;;;5032028;28;20213;-37
2023/08/12 06:41:55;;;;;;;5.00;2.78;;;;;;;;;;5032176;28;20231;-37
2023/08/12 06:44:22;;;;;;;5.18;3.05;;;;;;;;;;5032081;28;20698;-37
2023/08/12 06:46:50;;;;;;;7.00;3.17;;;;;;;;;;5025431;28;20689;-37
2023/08/12 06:49:18;;;;;;;5.63;3.35;;;;;;;;;;5033781;28;20212;-39
2023/08/12 06:51:45;;;;;;;3.90;2.50;;;;;;;;;;5031856;28;20216;-37
2023/08/12 06:54:12;;;;;;;5.50;2.58;;;;;;;;;;5033124;28;20271;-38
2023/08/12 06:56:39;;;;;;;4.93;2.47;;;;;;;;;;5029144;28;20713;-38
2023/08/12 06:59:06;;;;;;;6.68;3.10;;;;;;;;;;5031900;28;20223;-38
2023/08/12 07:01:33;;;;;;;7.70;2.58;;;;;;;;;;5031752;28;20212;-40
2023/08/12 07:04:00;;;;;;;6.75;2.30;;;;;;;;;;5031611;28;20312;-39
2023/08/12 07:06:28;;;;;;;4.72;2.33;;;;;;;;;;5027422;28;20213;-37
2023/08/12 07:08:56;;;;;;;4.30;2.17;;;;;;;;;;5031512;28;20228;-38
2023/08/12 07:11:23;;;;;;;3.22;2.05;;;;;;;;;;5032531;28;20224;-38
2023/08/12 07:13:50;;;;;;;4.95;2.50;;;;;;;;;;5035710;28;20217;-38
2023/08/12 07:16:17;;;;;;;7.53;2.45;;;;;;;;;;5035312;28;20238;-38
2023/08/12 07:18:44;;;;;;;2.40;1.88;;;;;;;;;;5034705;28;20224;-38
2023/08/12 07:21:12;;;;;;;1.75;1.40;;;;;;;;;;5035389;28;20225;-37
2023/08/12 07:23:39;;;;;;;2.10;1.65;;;;;;;;;;5032256;28;20213;-38
2023/08/12 07:26:12;;;;;;;5.20;2.10;;;;;;;;;;5038032;28;20685;-37
2023/08/12 07:28:39;;;;;;;5.68;2.33;;;;;;;;;;5035209;28;20232;-38
2023/08/12 07:31:07;;;;;;;3.38;2.03;;;;;;;;;;5033370;28;20217;-38
2023/08/12 07:33:34;;;;;;;3.83;2.17;;;;;;;;;;5034819;28;20237;-38
2023/08/12 07:36:02;;;;;;;4.57;1.33;;;;;;;;;;5030279;28;20694;-37
2023/08/12 07:38:29;;;;;;;2.33;1.30;;;;;;;;;;5029647;28;20256;-39
2023/08/12 07:40:57;;;;;;;5.72;1.55;;;;;;;;;;5028665;28;20286;-39
2023/08/12 07:43:24;;;;;;;3.15;1.90;;;;;;;;;;5030512;28;20237;-38
2023/08/12 07:45:52;;;;;;;5.28;1.63;;;;;;;;;;5040403;28;20712;-37
2023/08/12 07:48:35;;;;;;;6.32;1.48;;;;;;;;;;5022128;28;20257;-38
2023/08/12 07:51:02;;;;;;;5.90;1.55;;;;;;;;;;5034474;28;20273;-38
2023/08/12 07:53:29;;;;;;;3.15;1.48;;;;;;;;;;5038597;28;20227;-37
2023/08/12 07:55:57;;;;;;;5.28;1.40;;;;;;;;;;5034209;28;20223;-37
2023/08/12 07:58:24;;;;;;;8.55;0.88;;;;;;;;;;5033818;28;20212;-38
2023/08/12 08:00:53;;;;;;;3.33;1.20;;;;;;;;;;5030517;28;20255;-37
2023/08/12 08:03:21;;;;;;;3.13;1.50;;;;;;;;;;5031583;28;20280;-40
2023/08/12 08:05:48;;;;;;;4.93;1.38;;;;;;;;;;5031739;28;20228;-38
2023/08/12 08:08:15;;;;;;;3.17;1.23;;;;;;;;;;5034532;28;20315;-37
2023/08/12 08:10:42;;;;;;;4.20;1.17;;;;;;;;;;5034245;28;20235;-39
2023/08/12 08:13:09;;;;;;;3.90;1.17;;;;;;;;;;5034294;28;20216;-38
2023/08/12 08:15:37;;;;;;;3.17;1.23;;;;;;;;;;5035254;28;20239;-46
2023/08/12 08:18:04;;;;;;;3.00;1.08;;;;;;;;;;5039872;28;20262;-49
2023/08/12 08:20:35;;;;;;;2.75;0.90;;;;;;;;;;5050913;28;20342;-47
2023/08/12 08:23:02;;;;;;;5.22;1.48;;;;;;;;;;5051636;28;20251;-49
2023/08/12 08:25:29;;;;;;;3.53;1.17;;;;;;;;;;5052691;28;20239;-48
2023/08/12 08:27:56;;;;;;;4.45;1.02;;;;;;;;;;5041215;28;20249;-49
2023/08/12 08:30:25;;;;;;;3.58;1.15;;;;;;;;;;5033809;28;20229;-46
2023/08/12 08:32:52;;;;;;;2.50;0.90;;;;;;;;;;5033975;28;20596;-46
2023/08/12 08:35:20;;;;;;;2.08;1.08;;;;;;;;;;5036779;28;20227;-47
2023/08/12 08:37:47;;;;;;;2.40;1.10;;;;;;;;;;5042988;28;20585;-46
2023/08/12 08:40:14;;;;;;;3.85;0.95;;;;;;;;;;5042535;28;20595;-45
2023/08/12 08:42:43;;;;;;;1.25;0.82;;;;;;;;;;5034439;28;20219;-55
2023/08/12 08:45:13;;;;;;;1.83;0.90;;;;;;;;;;5035564;28;20248;-47
2023/08/12 08:47:41;;;;;;;1.65;0.82;;;;;;;;;;5036562;28;20574;-47
2023/08/12 08:50:09;;;;;;;1.25;0.77;;;;;;;;;;5043004;28;20232;-48
2023/08/12 08:52:37;;;;;;;2.50;0.90;;;;;;;;;;5039717;28;20209;-50
2023/08/12 08:55:05;;;;;;;4.20;1.00;;;;;;;;;;5043964;28;20197;-49
2023/08/12 08:57:35;;;;;;;2.47;1.05;;;;;;;;;;5044508;28;20196;-48
2023/08/12 09:00:15;;;;;;;4.05;0.90;;;;;;;;;;5039489;28;20193;-48
2023/08/12 09:02:46;;;;;;;2.65;1.00;;;;;;;;;;5031260;28;20661;-49
2023/08/12 09:05:14;;;;;;;2.60;0.95;;;;;;;;;;5030912;28;20583;-51
2023/08/12 09:07:43;;;;;;;4.53;0.77;;;;;;;;;;5032845;28;20260;-48
2023/08/12 09:10:11;;;;;;;2.10;0.70;;;;;;;;;;5040744;28;20300;-48
2023/08/12 09:12:42;;;;;;;2.22;0.77;;;;;;;;;;5037686;28;20203;-48
2023/08/12 09:15:10;;;;;;;5.28;0.85;;;;;;;;;;5037979;28;20220;-48
2023/08/12 09:17:37;;;;;;;2.97;0.98;;;;;;;;;;5040762;28;20208;-50
2023/08/12 09:20:11;;;;;;;5.57;1.08;;;;;;;;;;5039988;28;20201;-49
2023/08/12 09:22:43;;;;;;;5.53;1.05;;;;;;;;;;5032359;28;20271;-49
2023/08/12 09:25:11;;;;;;;2.38;0.90;;;;;;;;;;5037829;28;20655;-47
2023/08/12 09:27:38;;;;;;;5.20;1.00;;;;;;;;;;5041465;28;20290;-47
2023/08/12 09:30:07;;;;;;;2.03;1.17;;;;;;;;;;5043405;28;20203;-45
2023/08/12 09:32:34;;;;;;;3.15;1.00;;;;;;;;;;5039129;28;20224;-47
2023/08/12 09:35:03;;;;;;;1.60;0.82;;;;;;;;;;5042524;28;20204;-45
2023/08/12 09:37:31;;;;;;;0.82;0.70;;;;;;;;;;5043259;28;20203;-45
2023/08/12 09:39:58;;;;;;;3.30;1.15;;;;;;;;;;5044166;28;20679;-45
2023/08/12 09:42:25;;;;;;;2.05;1.00;;;;;;;;;;5043707;28;20200;-45
2023/08/12 09:44:53;;;;;;;2.97;0.90;;;;;;;;;;5040838;28;20192;-45
2023/08/12 09:47:20;;;;;;;2.28;1.08;;;;;;;;;;5043282;28;20520;-45
2023/08/12 09:49:47;;;;;;;3.50;0.90;;;;;;;;;;5046358;28;20518;-47
2023/08/12 09:52:14;;;;;;;4.05;1.10;;;;;;;;;;5024326;28;20673;-47
2023/08/12 09:54:43;;;;;;;3.42;0.93;;;;;;;;;;5031525;28;20259;-44
2023/08/12 09:57:11;;;;;;;2.97;1.30;;;;;;;;;;5037908;28;20719;-49
2023/08/12 09:59:41;;;;;;;2.65;0.90;;;;;;;;;;5038279;28;20208;-46
2023/08/12 10:02:12;;;;;;;2.65;0.93;;;;;;;;;;5039423;28;20205;-48
2023/08/12 10:04:45;;;;;;;7.13;1.20;;;;;;;;;;5037379;28;20193;-47
2023/08/12 10:07:12;;;;;;;2.38;0.82;;;;;;;;;;5040868;28;20193;-50
2023/08/12 10:09:40;;;;;;;2.35;0.80;;;;;;;;;;5042525;28;20203;-48
2023/08/12 10:12:07;;;;;;;2.35;0.98;;;;;;;;;;5044170;28;20204;-48
2023/08/12 10:14:35;;;;;;;4.97;1.00;;;;;;;;;;5033924;28;20266;-47
2023/08/12 10:17:02;;;;;;;1.42;0.85;;;;;;;;;;5032188;28;20227;-48
2023/08/12 10:19:33;;;;;;;1.83;0.90;;;;;;;;;;5031660;28;20196;-48
2023/08/12 10:22:03;;;;;;;6.38;0.82;;;;;;;;;;5024894;28;20200;-52
2023/08/12 10:24:31;;;;;;;2.17;0.90;;;;;;;;;;5041392;28;20219;-45
2023/08/12 10:26:58;;;;;;;4.88;1.10;;;;;;;;;;5047160;28;20254;-44
2023/08/12 10:29:25;;;;;;;2.28;1.05;;;;;;;;;;5040695;28;20294;-48
2023/08/12 10:31:52;;;;;;;3.55;0.88;;;;;;;;;;5034109;28;20247;-46
2023/08/12 10:34:25;;;;;;;5.63;1.05;;;;;;;;;;5032162;28;20231;-44
2023/08/12 10:36:56;;;;;;;2.03;1.10;;;;;;;;;;5031053;28;20277;-43
2023/08/12 10:39:33;;;;;;;1.35;0.73;;;;;;;;;;5034592;28;20189;-48
2023/08/12 10:42:01;;;;;;;7.07;2.90;;;;;;;;;;5033768;28;20272;-48
2023/08/12 10:44:50;;;;;;;1.33;0.80;;;;;;;;;;5035384;28;20193;-54
2023/08/12 10:47:17;;;;;;;2.70;0.90;;;;;;;;;;5038029;28;20197;-52
2023/08/12 10:49:49;;;;;;;1.52;0.60;;;;;;;;;;5040988;28;20265;-53
2023/08/12 10:52:29;;;;;;;2.13;0.80;;;;;;;;;;5039589;28;20268;-51
2023/08/12 10:55:24;;;;;;;4.18;0.93;;;;;;;;;;5040654;28;20200;-50
2023/08/12 10:57:53;;;;;;;2.92;1.10;;;;;;;;;;5033934;28;20192;-49
2023/08/12 11:00:24;;;;;;;1.35;0.70;;;;;;;;;;5036727;28;20197;-52
2023/08/12 11:02:52;;;;;;;3.45;0.88;;;;;;;;;;5034790;28;20193;-57
2023/08/12 11:05:20;;;;;;;2.08;0.98;;;;;;;;;;5018946;28;20209;-59
2023/08/12 11:08:00;;;;;;;1.15;0.80;;;;;;;;;;5022969;28;20213;-51
2023/08/12 11:10:31;;;;;;;1.42;0.75;;;;;;;;;;5034241;28;20208;-50
2023/08/12 11:13:02;;;;;;;4.72;1.00;;;;;;;;;;5032950;28;20185;-54
2023/08/12 11:15:46;;;;;;;1.27;0.90;;;;;;;;;;5034237;28;20203;-52
2023/08/12 11:18:19;;;;;;;0.75;0.60;;;;;;;;;;5016102;28;20193;-49
2023/08/12 11:20:49;;;;;;;2.60;1.00;;;;;;;;;;5033898;28;20554;-52
2023/08/12 11:23:17;;;;;;;3.15;0.70;;;;;;;;;;5031336;28;20201;-53
2023/08/12 11:25:45;;;;;;;3.50;1.00;;;;;;;;;;5033111;28;20247;-58
2023/08/12 11:28:12;;;;;;;3.65;0.95;;;;;;;;;;5041991;28;20221;-58
2023/08/12 11:30:42;;;;;;;1.95;0.98;;;;;;;;;;5034951;28;20561;-56
2023/08/12 11:33:09;;;;;;;1.58;0.85;;;;;;;;;;5033585;28;20236;-57
2023/08/12 11:35:37;;;;;;;2.10;1.00;;;;;;;;;;5032886;28;20224;-58
2023/08/12 11:38:05;;;;;;;1.83;1.10;;;;;;;;;;5034787;28;20547;-57
2023/08/12 11:40:33;;;;;;;5.60;1.05;;;;;;;;;;5035320;28;20193;-59
2023/08/12 11:43:00;;;;;;;2.22;0.80;;;;;;;;;;5033240;28;20224;-59
2023/08/12 11:45:28;;;;;;;1.83;0.73;;;;;;;;;;5033213;28;20204;-58
2023/08/12 11:47:55;;;;;;;3.50;1.20;;;;;;;;;;5030808;28;20205;-58
2023/08/12 11:50:26;;;;;;;2.97;1.10;;;;;;;;;;5032382;28;20207;-58
2023/08/12 11:52:55;;;;;;;4.07;1.20;;;;;;;;;;5033087;28;20271;-56
2023/08/12 11:55:23;;;;;;;6.18;1.20;;;;;;;;;;5032386;28;20188;-56
2023/08/12 11:57:51;;;;;;;4.25;2.13;;;;;;;;;;5031825;28;20189;-58
2023/08/12 12:00:19;;;;;;;2.92;1.05;;;;;;;;;;5028447;28;20267;-58
2023/08/12 12:02:55;;;;;;;2.65;1.23;;;;;;;;;;5036077;28;20207;-58
2023/08/12 12:05:29;;;;;;;3.22;0.98;;;;;;;;;;5034921;28;20224;-58
2023/08/12 12:07:56;;;;;;;4.07;1.20;;;;;;;;;;5030655;28;20196;-58
2023/08/12 12:10:32;;;;;;;3.55;0.90;;;;;;;;;;5033516;28;20201;-58
2023/08/12 12:13:03;;;;;;;2.03;1.00;;;;;;;;;;5042293;28;20192;-58
2023/08/12 12:15:31;;;;;;;1.58;0.90;;;;;;;;;;5033150;28;20208;-59
2023/08/12 12:17:59;;;;;;;1.98;0.90;;;;;;;;;;5033463;28;20220;-59
2023/08/12 12:20:29;;;;;;;1.83;1.02;;;;;;;;;;5034180;28;20197;-54
2023/08/12 12:22:56;;;;;;;2.20;1.00;;;;;;;;;;5034339;28;20189;-50
2023/08/12 12:25:24;;;;;;;5.90;1.30;;;;;;;;;;5033729;28;20196;-58
2023/08/12 12:27:53;;;;;;;3.63;1.02;;;;;;;;;;5034044;28;20210;-58
2023/08/12 12:30:20;;;;;;;5.82;1.30;;;;;;;;;;5032491;28;20200;-58
2023/08/12 12:32:47;;;;;;;2.33;1.10;;;;;;;;;;5040889;28;20337;-58
2023/08/12 12:35:15;;;;;;;2.85;1.20;;;;;;;;;;5034928;28;20189;-58
2023/08/12 12:37:43;;;;;;;1.50;1.10;;;;;;;;;;5033967;28;20197;-58
2023/08/12 12:40:11;;;;;;;2.67;0.90;;;;;;;;;;5033669;28;20668;-58
2023/08/12 12:42:38;;;;;;;1.55;1.05;;;;;;;;;;5029964;28;20196;-58
2023/08/12 12:45:06;;;;;;;4.45;1.67;;;;;;;;;;5027066;28;20224;-56
2023/08/12 12:47:33;;;;;;;2.63;1.48;;;;;;;;;;5025861;28;20213;-53
2023/08/12 12:50:00;;;;;;;1.90;1.10;;;;;;;;;;5032806;28;20719;-58
2023/08/12 12:52:27;;;;;;;4.28;2.13;;;;;;;;;;5024588;28;20220;-59
2023/08/12 12:54:55;;;;;;;31.00;17.38;;;;;;;;;;5027264;28;20239;-60
2023/08/12 12:57:23;;;;;;;13.75;6.22;;;;;;;;;;5021635;28;20217;-59
2023/08/12 12:59:50;;;;;;;2.83;2.05;;;;;;;;;;5030317;28;20220;-59
2023/08/12 13:02:17;;;;;;;3.17;1.50;;;;;;;;;;5031960;28;20719;-58
2023/08/12 13:04:44;;;;;;;5.38;2.70;;;;;;;;;;5032805;28;20213;-59
2023/08/12 13:07:11;;;;;;;23.15;12.68;;;;;;;;;;5032648;28;20212;-57
2023/08/12 13:09:39;;;;;;;6.32;2.17;;;;;;;;;;5031824;28;20224;-60
2023/08/12 13:12:08;;;;;;;4.15;2.15;;;;;;;;;;5032712;28;20227;-60
2023/08/12 13:14:35;;;;;;;2.40;1.00;;;;;;;;;;5029911;28;20220;-57
2023/08/12 13:17:02;;;;;;;1.83;1.15;;;;;;;;;;5027801;28;20247;-60
2023/08/12 13:19:30;;;;;;;12.75;7.20;;;;;;;;;;5030073;28;20216;-58
2023/08/12 13:21:57;;;;;;;26.42;15.00;;;;;;;;;;5032495;28;20316;-59
2023/08/12 13:24:24;;;;;;;3.05;1.40;;;;;;;;;;5031268;28;20217;-59
2023/08/12 13:26:52;;;;;;;78.72;55.95;;;;;;;;;;5031858;28;20209;-57
2023/08/12 13:29:19;;;;;;;12.48;6.25;;;;;;;;;;5032030;28;20244;-56
2023/08/12 13:31:46;;;;;;;58.20;35.53;;;;;;;;;;5032839;28;20235;-52
2023/08/12 13:34:14;;;;;;;133.30;93.28;;;;;;;;;;5033149;28;20708;-60
2023/08/12 13:36:41;;;;;;;29.33;17.13;;;;;;;;;;5033115;28;20204;-59
2023/08/12 13:39:08;;;;;;;13.20;5.75;;;;;;;;;;5033188;28;20209;-52
2023/08/12 13:41:35;;;;;;;3.65;1.63;;;;;;;;;;5032623;28;20197;-59
2023/08/12 13:44:03;;;;;;;16.98;8.75;;;;;;;;;;5032059;28;20204;-60
2023/08/12 13:46:30;;;;;;;5.82;1.55;;;;;;;;;;5025734;28;20288;-59
2023/08/12 13:48:58;;;;;;;3.38;1.75;;;;;;;;;;5030917;28;20220;-59
2023/08/12 13:51:25;;;;;;;11.68;6.88;;;;;;;;;;5032650;28;20200;-59
2023/08/12 13:53:52;;;;;;;5.22;2.47;;;;;;;;;;5032149;28;20557;-60
2023/08/12 13:56:20;;;;;;;5.15;2.40;;;;;;;;;;5031680;28;20285;-60
2023/08/12 13:58:47;;;;;;;5.03;1.70;;;;;;;;;;5032807;28;20267;-52
2023/08/12 14:01:14;;;;;;;15.15;9.70;;;;;;;;;;5032713;28;20562;-55
2023/08/12 14:03:42;;;;;;;3.63;1.70;;;;;;;;;;5032630;28;20196;-55
2023/08/12 14:06:09;;;;;;;1.85;1.10;;;;;;;;;;5032697;28;20852;-58
2023/08/12 14:08:36;;;;;;;3.10;1.35;;;;;;;;;;5032778;28;20228;-59
2023/08/12 14:11:03;;;;;;;2.28;1.20;;;;;;;;;;5032711;28;20193;-54
2023/08/12 14:13:31;;;;;;;5.22;1.55;;;;;;;;;;5032536;28;20200;-54
2023/08/12 14:15:57;;;;;;;1.52;1.30;;;;;;;;;;5030359;28;20196;-54
2023/08/12 14:18:25;;;;;;;2.72;1.30;;;;;;;;;;5024529;28;20205;-56
2023/08/12 14:20:52;;;;;;;3.58;1.17;;;;;;;;;;5031593;28;20203;-56
2023/08/12 14:23:19;;;;;;;6.57;1.73;;;;;;;;;;5036912;28;20192;-56
2023/08/12 14:25:46;;;;;;;3.95;1.52;;;;;;;;;;5034909;28;20209;-56
2023/08/12 14:28:13;;;;;;;2.88;1.25;;;;;;;;;;5037267;28;20208;-53
2023/08/12 14:30:40;;;;;;;2.50;1.33;;;;;;;;;;5031426;28;20217;-55
2023/08/12 14:33:08;;;;;;;2.45;1.45;;;;;;;;;;5014794;28;20250;-56
2023/08/12 14:35:35;;;;;;;2.13;1.20;;;;;;;;;;5014904;28;20217;-56
2023/08/12 14:38:03;;;;;;;7.05;1.13;;;;;;;;;;5015017;28;20580;-55
2023/08/12 14:40:30;;;;;;;3.63;1.40;;;;;;;;;;5021762;28;20274;-51
2023/08/12 14:42:58;;;;;;;3.35;1.52;;;;;;;;;;5034502;28;20232;-52
2023/08/12 14:45:25;;;;;;;1.75;1.20;;;;;;;;;;5033112;28;20371;-51
2023/08/12 14:47:52;;;;;;;5.72;1.55;;;;;;;;;;5023183;28;20225;-58
2023/08/12 14:50:19;;;;;;;3.10;1.20;;;;;;;;;;5038752;28;20243;-56